sensor_id;sensor_type;location;lat;lon;timestamp;P1;durP1;ratioP1;P2;durP2;ratioP2
22737;SDS011;11536;50.860;4.286;2022-08-18T00:00:00;51.42;;;33.50;;
22737;SDS011;11536;50.860;4.286;2022-08-18T00:02:26;51.95;;;34.97;;
22737;SDS011;11536;50.860;4.286;2022-08-18T00:04:54;54.65;;;36.75;;
22737;SDS011;11536;50.860;4.286;2022-08-18T00:07:22;50.97;;;35.03;;
22737;SDS011;11536;50.860;4.286;2022-08-18T00:09:49;49.22;;;33.38;;
22737;SDS011;11536;50.860;4.286;2022-08-18T00:12:17;54.40;;;36.30;;
22737;SDS011;11536;50.860;4.286;2022-08-18T00:14:44;46.85;;;33.05;;
22737;SDS011;11536;50.860;4.286;2022-08-18T00:17:10;55.40;;;36.05;;
22737;SDS011;11536;50.860;4.286;2022-08-18T00:19:37;54.85;;;35.72;;
22737;SDS011;11536;50.860;4.286;2022-08-18T00:22:02;58.08;;;37.38;;
22737;SDS011;11536;50.860;4.286;2022-08-18T00:24:28;57.45;;;37.53;;
22737;SDS011;11536;50.860;4.286;2022-08-18T00:26:55;53.08;;;35.22;;
22737;SDS011;11536;50.860;4.286;2022-08-18T00:29:21;54.45;;;36.42;;
22737;SDS011;11536;50.860;4.286;2022-08-18T00:31:47;55.97;;;36.50;;
22737;SDS011;11536;50.860;4.286;2022-08-18T00:34:13;51.95;;;33.67;;
22737;SDS011;11536;50.860;4.286;2022-08-18T00:36:39;52.83;;;34.75;;
22737;SDS011;11536;50.860;4.286;2022-08-18T00:39:05;54.10;;;34.22;;
22737;SDS011;11536;50.860;4.286;2022-08-18T00:41:31;61.60;;;39.47;;
22737;SDS011;11536;50.860;4.286;2022-08-18T00:43:56;61.90;;;38.78;;
22737;SDS011;11536;50.860;4.286;2022-08-18T00:46:32;56.85;;;35.90;;
22737;SDS011;11536;50.860;4.286;2022-08-18T00:48:59;59.40;;;35.85;;
22737;SDS011;11536;50.860;4.286;2022-08-18T00:51:44;59.35;;;37.47;;
22737;SDS011;11536;50.860;4.286;2022-08-18T00:54:18;56.97;;;36.67;;
22737;SDS011;11536;50.860;4.286;2022-08-18T00:56:49;55.80;;;35.17;;
22737;SDS011;11536;50.860;4.286;2022-08-18T00:59:22;56.53;;;35.00;;
22737;SDS011;11536;50.860;4.286;2022-08-18T01:01:51;67.30;;;40.78;;
22737;SDS011;11536;50.860;4.286;2022-08-18T01:04:21;63.22;;;38.50;;
22737;SDS011;11536;50.860;4.286;2022-08-18T01:06:54;66.90;;;38.50;;
22737;SDS011;11536;50.860;4.286;2022-08-18T01:09:24;61.17;;;36.83;;
22737;SDS011;11536;50.860;4.286;2022-08-18T01:11:50;59.35;;;36.67;;
22737;SDS011;11536;50.860;4.286;2022-08-18T01:14:16;59.28;;;35.45;;
22737;SDS011;11536;50.860;4.286;2022-08-18T01:16:43;69.55;;;39.50;;
22737;SDS011;11536;50.860;4.286;2022-08-18T01:19:31;68.43;;;39.95;;
22737;SDS011;11536;50.860;4.286;2022-08-18T01:22:31;67.38;;;38.15;;
22737;SDS011;11536;50.860;4.286;2022-08-18T01:25:07;63.42;;;38.22;;
22737;SDS011;11536;50.860;4.286;2022-08-18T01:27:52;66.93;;;39.03;;
22737;SDS011;11536;50.860;4.286;2022-08-18T01:30:21;64.40;;;37.13;;
22737;SDS011;11536;50.860;4.286;2022-08-18T01:32:49;61.30;;;38.28;;
22737;SDS011;11536;50.860;4.286;2022-08-18T01:35:16;79.82;;;45.40;;
22737;SDS011;11536;50.860;4.286;2022-08-18T01:37:44;69.63;;;41.92;;
22737;SDS011;11536;50.860;4.286;2022-08-18T01:40:11;71.53;;;42.13;;
22737;SDS011;11536;50.860;4.286;2022-08-18T01:42:38;77.10;;;43.75;;
22737;SDS011;11536;50.860;4.286;2022-08-18T01:45:04;73.63;;;41.15;;
22737;SDS011;11536;50.860;4.286;2022-08-18T01:47:32;66.10;;;39.20;;
22737;SDS011;11536;50.860;4.286;2022-08-18T01:50:00;73.53;;;41.40;;
22737;SDS011;11536;50.860;4.286;2022-08-18T01:52:25;72.43;;;41.50;;
22737;SDS011;11536;50.860;4.286;2022-08-18T01:54:53;77.07;;;42.38;;
22737;SDS011;11536;50.860;4.286;2022-08-18T01:57:20;79.68;;;45.13;;
22737;SDS011;11536;50.860;4.286;2022-08-18T01:59:46;75.10;;;44.00;;
22737;SDS011;11536;50.860;4.286;2022-08-18T02:02:13;71.72;;;40.60;;
22737;SDS011;11536;50.860;4.286;2022-08-18T02:04:42;70.85;;;39.58;;
22737;SDS011;11536;50.860;4.286;2022-08-18T02:07:10;70.40;;;39.45;;
22737;SDS011;11536;50.860;4.286;2022-08-18T02:09:37;75.88;;;44.47;;
22737;SDS011;11536;50.860;4.286;2022-08-18T02:12:05;72.60;;;41.97;;
22737;SDS011;11536;50.860;4.286;2022-08-18T02:14:31;70.97;;;39.53;;
22737;SDS011;11536;50.860;4.286;2022-08-18T02:16:59;70.10;;;40.00;;
22737;SDS011;11536;50.860;4.286;2022-08-18T02:19:26;69.18;;;39.13;;
22737;SDS011;11536;50.860;4.286;2022-08-18T02:21:52;69.50;;;40.05;;
22737;SDS011;11536;50.860;4.286;2022-08-18T02:24:17;63.42;;;37.10;;
22737;SDS011;11536;50.860;4.286;2022-08-18T02:26:44;68.65;;;40.42;;
22737;SDS011;11536;50.860;4.286;2022-08-18T02:29:09;59.22;;;34.50;;
22737;SDS011;11536;50.860;4.286;2022-08-18T02:31:36;74.28;;;42.35;;
22737;SDS011;11536;50.860;4.286;2022-08-18T02:34:02;71.82;;;41.35;;
22737;SDS011;11536;50.860;4.286;2022-08-18T02:36:27;72.18;;;42.25;;
22737;SDS011;11536;50.860;4.286;2022-08-18T02:38:53;72.00;;;40.13;;
22737;SDS011;11536;50.860;4.286;2022-08-18T02:41:19;71.43;;;41.25;;
22737;SDS011;11536;50.860;4.286;2022-08-18T02:43:45;70.45;;;40.35;;
22737;SDS011;11536;50.860;4.286;2022-08-18T02:46:12;68.68;;;40.08;;
22737;SDS011;11536;50.860;4.286;2022-08-18T02:48:38;70.75;;;40.35;;
22737;SDS011;11536;50.860;4.286;2022-08-18T02:51:06;75.35;;;41.25;;
22737;SDS011;11536;50.860;4.286;2022-08-18T02:53:34;69.72;;;38.28;;
22737;SDS011;11536;50.860;4.286;2022-08-18T02:56:11;70.95;;;39.78;;
22737;SDS011;11536;50.860;4.286;2022-08-18T02:59:07;57.72;;;33.50;;
22737;SDS011;11536;50.860;4.286;2022-08-18T03:01:37;70.40;;;39.42;;
22737;SDS011;11536;50.860;4.286;2022-08-18T03:04:04;78.57;;;40.47;;
22737;SDS011;11536;50.860;4.286;2022-08-18T03:06:32;59.92;;;36.08;;
22737;SDS011;11536;50.860;4.286;2022-08-18T03:09:00;61.25;;;34.90;;
22737;SDS011;11536;50.860;4.286;2022-08-18T03:11:27;57.58;;;34.35;;
22737;SDS011;11536;50.860;4.286;2022-08-18T03:13:53;63.80;;;36.47;;
22737;SDS011;11536;50.860;4.286;2022-08-18T03:16:20;58.97;;;34.20;;
22737;SDS011;11536;50.860;4.286;2022-08-18T03:18:48;61.17;;;35.78;;
22737;SDS011;11536;50.860;4.286;2022-08-18T03:21:20;61.88;;;37.83;;
22737;SDS011;11536;50.860;4.286;2022-08-18T03:23:48;89.78;;;38.55;;
22737;SDS011;11536;50.860;4.286;2022-08-18T03:26:15;59.70;;;36.55;;
22737;SDS011;11536;50.860;4.286;2022-08-18T03:28:43;57.83;;;35.78;;
22737;SDS011;11536;50.860;4.286;2022-08-18T03:31:12;52.30;;;30.65;;
22737;SDS011;11536;50.860;4.286;2022-08-18T03:33:39;62.88;;;38.70;;
22737;SDS011;11536;50.860;4.286;2022-08-18T03:36:16;59.83;;;36.30;;
22737;SDS011;11536;50.860;4.286;2022-08-18T03:38:44;72.85;;;36.60;;
22737;SDS011;11536;50.860;4.286;2022-08-18T03:41:11;54.70;;;34.17;;
22737;SDS011;11536;50.860;4.286;2022-08-18T03:43:39;58.03;;;32.60;;
22737;SDS011;11536;50.860;4.286;2022-08-18T03:46:05;59.08;;;33.67;;
22737;SDS011;11536;50.860;4.286;2022-08-18T03:48:34;57.47;;;34.25;;
22737;SDS011;11536;50.860;4.286;2022-08-18T03:51:04;55.53;;;34.22;;
22737;SDS011;11536;50.860;4.286;2022-08-18T03:53:31;59.78;;;36.42;;
22737;SDS011;11536;50.860;4.286;2022-08-18T03:55:58;62.88;;;36.20;;
22737;SDS011;11536;50.860;4.286;2022-08-18T03:58:24;67.13;;;37.95;;
22737;SDS011;11536;50.860;4.286;2022-08-18T04:00:50;58.47;;;35.90;;
22737;SDS011;11536;50.860;4.286;2022-08-18T04:03:16;57.58;;;35.08;;
22737;SDS011;11536;50.860;4.286;2022-08-18T04:05:41;57.53;;;34.53;;
22737;SDS011;11536;50.860;4.286;2022-08-18T04:08:07;58.38;;;34.47;;
22737;SDS011;11536;50.860;4.286;2022-08-18T04:10:33;63.38;;;36.65;;
22737;SDS011;11536;50.860;4.286;2022-08-18T04:12:59;62.42;;;36.33;;
22737;SDS011;11536;50.860;4.286;2022-08-18T04:15:29;60.58;;;35.13;;
22737;SDS011;11536;50.860;4.286;2022-08-18T04:17:59;59.78;;;35.78;;
22737;SDS011;11536;50.860;4.286;2022-08-18T04:20:27;64.78;;;39.30;;
22737;SDS011;11536;50.860;4.286;2022-08-18T04:22:54;56.03;;;33.90;;
22737;SDS011;11536;50.860;4.286;2022-08-18T04:25:19;59.08;;;35.67;;
22737;SDS011;11536;50.860;4.286;2022-08-18T04:27:45;54.13;;;33.80;;
22737;SDS011;11536;50.860;4.286;2022-08-18T04:30:11;60.53;;;37.95;;
22737;SDS011;11536;50.860;4.286;2022-08-18T04:32:37;56.75;;;36.30;;
22737;SDS011;11536;50.860;4.286;2022-08-18T04:35:03;60.42;;;36.20;;
22737;SDS011;11536;50.860;4.286;2022-08-18T04:37:30;58.67;;;36.92;;
22737;SDS011;11536;50.860;4.286;2022-08-18T04:39:56;59.17;;;36.70;;
22737;SDS011;11536;50.860;4.286;2022-08-18T04:42:23;55.10;;;33.65;;
22737;SDS011;11536;50.860;4.286;2022-08-18T04:44:49;53.88;;;33.45;;
22737;SDS011;11536;50.860;4.286;2022-08-18T04:47:15;52.83;;;31.10;;
22737;SDS011;11536;50.860;4.286;2022-08-18T04:49:41;51.17;;;30.90;;
22737;SDS011;11536;50.860;4.286;2022-08-18T04:52:08;53.03;;;31.60;;
22737;SDS011;11536;50.860;4.286;2022-08-18T04:54:53;57.03;;;33.30;;
22737;SDS011;11536;50.860;4.286;2022-08-18T04:57:19;56.08;;;35.20;;
22737;SDS011;11536;50.860;4.286;2022-08-18T04:59:47;55.40;;;32.33;;
22737;SDS011;11536;50.860;4.286;2022-08-18T05:02:18;50.40;;;30.42;;
22737;SDS011;11536;50.860;4.286;2022-08-18T05:04:45;56.50;;;33.50;;
22737;SDS011;11536;50.860;4.286;2022-08-18T05:07:11;58.72;;;35.47;;
22737;SDS011;11536;50.860;4.286;2022-08-18T05:09:39;55.67;;;32.45;;
22737;SDS011;11536;50.860;4.286;2022-08-18T05:12:06;53.40;;;33.25;;
22737;SDS011;11536;50.860;4.286;2022-08-18T05:14:33;58.50;;;35.38;;
22737;SDS011;11536;50.860;4.286;2022-08-18T05:17:00;54.22;;;32.97;;
22737;SDS011;11536;50.860;4.286;2022-08-18T05:19:27;56.00;;;33.50;;
22737;SDS011;11536;50.860;4.286;2022-08-18T05:21:55;46.97;;;28.55;;
22737;SDS011;11536;50.860;4.286;2022-08-18T05:24:24;54.70;;;34.17;;
22737;SDS011;11536;50.860;4.286;2022-08-18T05:26:51;53.05;;;31.83;;
22737;SDS011;11536;50.860;4.286;2022-08-18T05:29:18;51.75;;;31.55;;
22737;SDS011;11536;50.860;4.286;2022-08-18T05:31:47;53.63;;;33.22;;
22737;SDS011;11536;50.860;4.286;2022-08-18T05:34:15;51.15;;;32.35;;
22737;SDS011;11536;50.860;4.286;2022-08-18T05:42:03;44.10;;;29.17;;
22737;SDS011;11536;50.860;4.286;2022-08-18T05:44:40;45.38;;;28.05;;
22737;SDS011;11536;50.860;4.286;2022-08-18T05:47:16;44.85;;;29.17;;
22737;SDS011;11536;50.860;4.286;2022-08-18T05:50:01;43.03;;;27.48;;
22737;SDS011;11536;50.860;4.286;2022-08-18T05:55:45;51.20;;;29.73;;
22737;SDS011;11536;50.860;4.286;2022-08-18T05:58:40;45.70;;;27.92;;
22737;SDS011;11536;50.860;4.286;2022-08-18T06:01:13;47.20;;;30.05;;
22737;SDS011;11536;50.860;4.286;2022-08-18T06:03:53;47.83;;;28.75;;
22737;SDS011;11536;50.860;4.286;2022-08-18T06:06:30;46.40;;;29.85;;
22737;SDS011;11536;50.860;4.286;2022-08-18T06:09:02;59.17;;;35.45;;
22737;SDS011;11536;50.860;4.286;2022-08-18T06:11:36;56.08;;;35.10;;
22737;SDS011;11536;50.860;4.286;2022-08-18T06:14:01;53.30;;;32.40;;
22737;SDS011;11536;50.860;4.286;2022-08-18T06:30:18;48.80;;;30.60;;
22737;SDS011;11536;50.860;4.286;2022-08-18T06:32:51;53.08;;;30.98;;
22737;SDS011;11536;50.860;4.286;2022-08-18T06:35:35;52.30;;;31.40;;
22737;SDS011;11536;50.860;4.286;2022-08-18T06:43:13;50.35;;;29.90;;
22737;SDS011;11536;50.860;4.286;2022-08-18T06:45:41;54.03;;;30.83;;
22737;SDS011;11536;50.860;4.286;2022-08-18T06:50:57;61.33;;;37.50;;
22737;SDS011;11536;50.860;4.286;2022-08-18T06:56:34;53.75;;;33.05;;
22737;SDS011;11536;50.860;4.286;2022-08-18T06:59:13;52.45;;;32.95;;
22737;SDS011;11536;50.860;4.286;2022-08-18T07:01:40;57.05;;;32.88;;
22737;SDS011;11536;50.860;4.286;2022-08-18T07:04:07;57.92;;;34.65;;
22737;SDS011;11536;50.860;4.286;2022-08-18T07:06:33;56.83;;;34.88;;
22737;SDS011;11536;50.860;4.286;2022-08-18T07:09:19;58.05;;;34.17;;
22737;SDS011;11536;50.860;4.286;2022-08-18T07:12:03;52.42;;;32.17;;
22737;SDS011;11536;50.860;4.286;2022-08-18T07:14:33;50.58;;;29.80;;
22737;SDS011;11536;50.860;4.286;2022-08-18T07:17:12;46.97;;;29.23;;
22737;SDS011;11536;50.860;4.286;2022-08-18T07:19:53;49.50;;;28.23;;
22737;SDS011;11536;50.860;4.286;2022-08-18T07:22:20;44.08;;;28.58;;
22737;SDS011;11536;50.860;4.286;2022-08-18T07:24:46;37.53;;;23.60;;
22737;SDS011;11536;50.860;4.286;2022-08-18T07:27:15;34.20;;;20.40;;
22737;SDS011;11536;50.860;4.286;2022-08-18T07:32:46;28.25;;;19.13;;
22737;SDS011;11536;50.860;4.286;2022-08-18T07:35:17;32.03;;;20.65;;
22737;SDS011;11536;50.860;4.286;2022-08-18T07:37:55;34.90;;;21.90;;
22737;SDS011;11536;50.860;4.286;2022-08-18T07:40:40;29.60;;;19.40;;
22737;SDS011;11536;50.860;4.286;2022-08-18T07:43:30;30.58;;;21.38;;
22737;SDS011;11536;50.860;4.286;2022-08-18T07:46:18;31.88;;;21.52;;
22737;SDS011;11536;50.860;4.286;2022-08-18T07:48:52;33.42;;;21.67;;
22737;SDS011;11536;50.860;4.286;2022-08-18T07:51:22;29.17;;;19.67;;
22737;SDS011;11536;50.860;4.286;2022-08-18T07:56:38;32.05;;;21.27;;
22737;SDS011;11536;50.860;4.286;2022-08-18T07:59:32;29.55;;;20.45;;
22737;SDS011;11536;50.860;4.286;2022-08-18T08:02:13;34.90;;;21.85;;
22737;SDS011;11536;50.860;4.286;2022-08-18T08:04:45;26.23;;;18.00;;
22737;SDS011;11536;50.860;4.286;2022-08-18T08:07:23;26.15;;;17.92;;
22737;SDS011;11536;50.860;4.286;2022-08-18T08:12:52;24.13;;;18.02;;
22737;SDS011;11536;50.860;4.286;2022-08-18T08:15:33;24.85;;;18.02;;
22737;SDS011;11536;50.860;4.286;2022-08-18T08:20:56;22.67;;;17.40;;
22737;SDS011;11536;50.860;4.286;2022-08-18T08:31:44;24.80;;;18.00;;
22737;SDS011;11536;50.860;4.286;2022-08-18T08:34:39;21.30;;;16.02;;
22737;SDS011;11536;50.860;4.286;2022-08-18T08:37:14;21.73;;;15.68;;
22737;SDS011;11536;50.860;4.286;2022-08-18T08:40:06;21.50;;;15.38;;
22737;SDS011;11536;50.860;4.286;2022-08-18T08:42:40;26.60;;;17.92;;
22737;SDS011;11536;50.860;4.286;2022-08-18T08:45:28;25.20;;;17.52;;
22737;SDS011;11536;50.860;4.286;2022-08-18T08:48:12;25.48;;;18.48;;
22737;SDS011;11536;50.860;4.286;2022-08-18T08:50:51;26.77;;;18.05;;
22737;SDS011;11536;50.860;4.286;2022-08-18T08:53:37;22.60;;;16.08;;
22737;SDS011;11536;50.860;4.286;2022-08-18T08:56:09;20.95;;;15.75;;
22737;SDS011;11536;50.860;4.286;2022-08-18T09:16:06;16.30;;;10.98;;
22737;SDS011;11536;50.860;4.286;2022-08-18T09:18:59;16.80;;;10.75;;
22737;SDS011;11536;50.860;4.286;2022-08-18T09:21:49;14.63;;;10.35;;
22737;SDS011;11536;50.860;4.286;2022-08-18T09:24:25;17.98;;;11.50;;
22737;SDS011;11536;50.860;4.286;2022-08-18T09:27:14;15.82;;;11.48;;
22737;SDS011;11536;50.860;4.286;2022-08-18T09:36:27;14.02;;;9.80;;
22737;SDS011;11536;50.860;4.286;2022-08-18T09:38:59;16.63;;;8.30;;
22737;SDS011;11536;50.860;4.286;2022-08-18T09:41:56;15.30;;;10.25;;
22737;SDS011;11536;50.860;4.286;2022-08-18T09:49:46;16.15;;;9.80;;
22737;SDS011;11536;50.860;4.286;2022-08-18T09:55:35;12.38;;;9.07;;
22737;SDS011;11536;50.860;4.286;2022-08-18T09:57:40;11.43;;;8.48;;
22737;SDS011;11536;50.860;4.286;2022-08-18T10:18:59;12.93;;;8.25;;
22737;SDS011;11536;50.860;4.286;2022-08-18T10:24:27;9.73;;;7.43;;
22737;SDS011;11536;50.860;4.286;2022-08-18T10:26:58;10.75;;;7.13;;
22737;SDS011;11536;50.860;4.286;2022-08-18T10:37:12;11.85;;;8.90;;
22737;SDS011;11536;50.860;4.286;2022-08-18T10:39:46;14.18;;;9.88;;
22737;SDS011;11536;50.860;4.286;2022-08-18T10:42:22;12.18;;;8.50;;
22737;SDS011;11536;50.860;4.286;2022-08-18T10:45:19;12.95;;;10.60;;
22737;SDS011;11536;50.860;4.286;2022-08-18T10:47:57;13.00;;;10.25;;
22737;SDS011;11536;50.860;4.286;2022-08-18T10:51:15;18.40;;;12.98;;
22737;SDS011;11536;50.860;4.286;2022-08-18T10:56:00;13.40;;;11.75;;
22737;SDS011;11536;50.860;4.286;2022-08-18T11:01:45;13.02;;;11.35;;
22737;SDS011;11536;50.860;4.286;2022-08-18T11:09:44;12.57;;;11.25;;
22737;SDS011;11536;50.860;4.286;2022-08-18T11:12:15;20.45;;;18.20;;
22737;SDS011;11536;50.860;4.286;2022-08-18T11:17:54;17.23;;;15.45;;
22737;SDS011;11536;50.860;4.286;2022-08-18T11:20:41;19.05;;;15.98;;
22737;SDS011;11536;50.860;4.286;2022-08-18T11:23:11;15.20;;;12.20;;
22737;SDS011;11536;50.860;4.286;2022-08-18T11:25:39;10.15;;;8.43;;
22737;SDS011;11536;50.860;4.286;2022-08-18T11:28:13;8.20;;;7.25;;
22737;SDS011;11536;50.860;4.286;2022-08-18T11:30:41;8.85;;;7.00;;
22737;SDS011;11536;50.860;4.286;2022-08-18T11:33:12;7.85;;;5.43;;
22737;SDS011;11536;50.860;4.286;2022-08-18T11:35:56;9.00;;;6.75;;
22737;SDS011;11536;50.860;4.286;2022-08-18T11:38:23;8.52;;;6.95;;
22737;SDS011;11536;50.860;4.286;2022-08-18T11:40:53;8.98;;;7.10;;
22737;SDS011;11536;50.860;4.286;2022-08-18T11:43:33;11.18;;;7.70;;
22737;SDS011;11536;50.860;4.286;2022-08-18T11:46:09;11.88;;;8.93;;
22737;SDS011;11536;50.860;4.286;2022-08-18T11:48:47;9.73;;;8.27;;
22737;SDS011;11536;50.860;4.286;2022-08-18T11:51:18;9.63;;;7.63;;
22737;SDS011;11536;50.860;4.286;2022-08-18T11:58:52;8.10;;;5.40;;
22737;SDS011;11536;50.860;4.286;2022-08-18T12:03:58;10.10;;;6.18;;
22737;SDS011;11536;50.860;4.286;2022-08-18T12:06:40;7.47;;;5.88;;
22737;SDS011;11536;50.860;4.286;2022-08-18T12:09:28;8.93;;;6.25;;
22737;SDS011;11536;50.860;4.286;2022-08-18T12:12:21;8.73;;;5.80;;
22737;SDS011;11536;50.860;4.286;2022-08-18T12:14:56;9.52;;;6.88;;
22737;SDS011;11536;50.860;4.286;2022-08-18T12:17:24;10.73;;;8.05;;
22737;SDS011;11536;50.860;4.286;2022-08-18T12:19:51;10.13;;;7.63;;
22737;SDS011;11536;50.860;4.286;2022-08-18T12:22:18;10.40;;;8.55;;
22737;SDS011;11536;50.860;4.286;2022-08-18T12:24:46;9.50;;;7.78;;
22737;SDS011;11536;50.860;4.286;2022-08-18T12:27:13;10.02;;;8.10;;
22737;SDS011;11536;50.860;4.286;2022-08-18T12:29:40;12.45;;;7.97;;
22737;SDS011;11536;50.860;4.286;2022-08-18T12:32:06;10.52;;;8.25;;
22737;SDS011;11536;50.860;4.286;2022-08-18T12:34:32;10.10;;;8.07;;
22737;SDS011;11536;50.860;4.286;2022-08-18T12:36:58;11.38;;;8.57;;
22737;SDS011;11536;50.860;4.286;2022-08-18T12:39:25;8.80;;;7.35;;
22737;SDS011;11536;50.860;4.286;2022-08-18T12:41:52;10.73;;;8.48;;
22737;SDS011;11536;50.860;4.286;2022-08-18T12:44:18;10.18;;;7.85;;
22737;SDS011;11536;50.860;4.286;2022-08-18T12:46:44;11.50;;;8.75;;
22737;SDS011;11536;50.860;4.286;2022-08-18T12:49:11;11.80;;;8.23;;
22737;SDS011;11536;50.860;4.286;2022-08-18T12:51:40;12.93;;;8.65;;
22737;SDS011;11536;50.860;4.286;2022-08-18T12:54:06;11.00;;;8.25;;
22737;SDS011;11536;50.860;4.286;2022-08-18T12:56:31;11.48;;;8.13;;
22737;SDS011;11536;50.860;4.286;2022-08-18T12:58:59;10.57;;;7.80;;
22737;SDS011;11536;50.860;4.286;2022-08-18T13:01:26;11.75;;;8.18;;
22737;SDS011;11536;50.860;4.286;2022-08-18T13:03:52;9.98;;;7.82;;
22737;SDS011;11536;50.860;4.286;2022-08-18T13:06:19;10.77;;;7.95;;
22737;SDS011;11536;50.860;4.286;2022-08-18T13:08:49;10.25;;;8.23;;
22737;SDS011;11536;50.860;4.286;2022-08-18T13:11:19;8.98;;;7.32;;
22737;SDS011;11536;50.860;4.286;2022-08-18T13:13:46;12.63;;;8.55;;
22737;SDS011;11536;50.860;4.286;2022-08-18T13:16:12;9.55;;;7.78;;
22737;SDS011;11536;50.860;4.286;2022-08-18T13:18:39;9.57;;;7.53;;
22737;SDS011;11536;50.860;4.286;2022-08-18T13:21:08;8.77;;;6.97;;
22737;SDS011;11536;50.860;4.286;2022-08-18T13:23:36;10.50;;;7.35;;
22737;SDS011;11536;50.860;4.286;2022-08-18T13:26:03;9.68;;;7.78;;
22737;SDS011;11536;50.860;4.286;2022-08-18T13:28:31;8.90;;;6.85;;
22737;SDS011;11536;50.860;4.286;2022-08-18T13:30:58;9.65;;;7.05;;
22737;SDS011;11536;50.860;4.286;2022-08-18T13:33:24;9.50;;;7.75;;
22737;SDS011;11536;50.860;4.286;2022-08-18T13:35:50;8.93;;;6.97;;
22737;SDS011;11536;50.860;4.286;2022-08-18T13:38:17;9.38;;;7.10;;
22737;SDS011;11536;50.860;4.286;2022-08-18T13:40:47;9.55;;;7.72;;
22737;SDS011;11536;50.860;4.286;2022-08-18T13:43:14;10.50;;;7.68;;
22737;SDS011;11536;50.860;4.286;2022-08-18T13:45:41;11.32;;;8.75;;
22737;SDS011;11536;50.860;4.286;2022-08-18T13:48:08;11.30;;;8.85;;
22737;SDS011;11536;50.860;4.286;2022-08-18T13:50:36;13.20;;;9.20;;
22737;SDS011;11536;50.860;4.286;2022-08-18T13:53:11;13.32;;;9.35;;
22737;SDS011;11536;50.860;4.286;2022-08-18T13:55:45;11.15;;;8.65;;
22737;SDS011;11536;50.860;4.286;2022-08-18T13:58:12;12.00;;;8.88;;
22737;SDS011;11536;50.860;4.286;2022-08-18T14:00:38;11.38;;;8.30;;
22737;SDS011;11536;50.860;4.286;2022-08-18T14:03:05;11.38;;;9.32;;
22737;SDS011;11536;50.860;4.286;2022-08-18T14:05:33;12.98;;;9.43;;
22737;SDS011;11536;50.860;4.286;2022-08-18T14:07:59;13.55;;;9.25;;
22737;SDS011;11536;50.860;4.286;2022-08-18T14:10:25;14.05;;;8.65;;
22737;SDS011;11536;50.860;4.286;2022-08-18T14:12:55;10.27;;;7.82;;
22737;SDS011;11536;50.860;4.286;2022-08-18T14:15:23;12.25;;;9.32;;
22737;SDS011;11536;50.860;4.286;2022-08-18T14:17:49;11.60;;;9.30;;
22737;SDS011;11536;50.860;4.286;2022-08-18T14:20:15;12.18;;;9.43;;
22737;SDS011;11536;50.860;4.286;2022-08-18T14:23:00;11.05;;;9.32;;
22737;SDS011;11536;50.860;4.286;2022-08-18T14:25:45;13.15;;;10.88;;
22737;SDS011;11536;50.860;4.286;2022-08-18T14:28:30;13.40;;;10.73;;
22737;SDS011;11536;50.860;4.286;2022-08-18T14:30:57;13.73;;;11.27;;
22737;SDS011;11536;50.860;4.286;2022-08-18T14:33:26;14.35;;;12.60;;
22737;SDS011;11536;50.860;4.286;2022-08-18T14:35:53;17.35;;;12.15;;
22737;SDS011;11536;50.860;4.286;2022-08-18T14:38:19;14.77;;;12.45;;
22737;SDS011;11536;50.860;4.286;2022-08-18T14:40:45;14.88;;;13.10;;
22737;SDS011;11536;50.860;4.286;2022-08-18T14:43:13;13.23;;;11.75;;
22737;SDS011;11536;50.860;4.286;2022-08-18T14:45:42;10.80;;;9.35;;
22737;SDS011;11536;50.860;4.286;2022-08-18T14:48:13;15.20;;;12.35;;
22737;SDS011;11536;50.860;4.286;2022-08-18T14:50:40;18.35;;;13.30;;
22737;SDS011;11536;50.860;4.286;2022-08-18T14:53:07;16.10;;;12.35;;
22737;SDS011;11536;50.860;4.286;2022-08-18T14:55:34;14.55;;;11.48;;
22737;SDS011;11536;50.860;4.286;2022-08-18T14:58:01;13.95;;;11.98;;
22737;SDS011;11536;50.860;4.286;2022-08-18T15:00:28;16.05;;;13.38;;
22737;SDS011;11536;50.860;4.286;2022-08-18T15:02:54;14.68;;;12.48;;
22737;SDS011;11536;50.860;4.286;2022-08-18T15:05:21;15.88;;;11.48;;
22737;SDS011;11536;50.860;4.286;2022-08-18T15:07:47;14.35;;;12.85;;
22737;SDS011;11536;50.860;4.286;2022-08-18T15:10:13;17.73;;;15.00;;
22737;SDS011;11536;50.860;4.286;2022-08-18T15:12:39;16.02;;;14.43;;
22737;SDS011;11536;50.860;4.286;2022-08-18T15:15:06;15.90;;;13.40;;
22737;SDS011;11536;50.860;4.286;2022-08-18T15:17:36;16.67;;;12.95;;
22737;SDS011;11536;50.860;4.286;2022-08-18T15:20:03;15.52;;;12.52;;
22737;SDS011;11536;50.860;4.286;2022-08-18T15:22:30;16.65;;;12.98;;
22737;SDS011;11536;50.860;4.286;2022-08-18T15:25:15;13.88;;;12.38;;
22737;SDS011;11536;50.860;4.286;2022-08-18T15:27:59;16.98;;;14.30;;
22737;SDS011;11536;50.860;4.286;2022-08-18T15:30:25;16.10;;;14.40;;
22737;SDS011;11536;50.860;4.286;2022-08-18T15:32:50;15.90;;;13.93;;
22737;SDS011;11536;50.860;4.286;2022-08-18T15:35:16;17.23;;;13.77;;
22737;SDS011;11536;50.860;4.286;2022-08-18T15:37:43;18.73;;;15.48;;
22737;SDS011;11536;50.860;4.286;2022-08-18T15:42:41;16.55;;;14.63;;
22737;SDS011;11536;50.860;4.286;2022-08-18T15:45:13;18.92;;;16.92;;
22737;SDS011;11536;50.860;4.286;2022-08-18T15:47:50;17.77;;;15.77;;
22737;SDS011;11536;50.860;4.286;2022-08-18T15:50:17;17.25;;;12.93;;
22737;SDS011;11536;50.860;4.286;2022-08-18T15:52:50;13.45;;;11.90;;
22737;SDS011;11536;50.860;4.286;2022-08-18T15:55:25;13.00;;;11.40;;
22737;SDS011;11536;50.860;4.286;2022-08-18T15:57:52;13.90;;;11.70;;
22737;SDS011;11536;50.860;4.286;2022-08-18T16:00:19;12.15;;;10.75;;
22737;SDS011;11536;50.860;4.286;2022-08-18T16:02:53;11.88;;;8.80;;
22737;SDS011;11536;50.860;4.286;2022-08-18T16:05:26;10.23;;;8.07;;
22737;SDS011;11536;50.860;4.286;2022-08-18T16:07:54;9.75;;;6.88;;
22737;SDS011;11536;50.860;4.286;2022-08-18T16:10:21;8.60;;;6.43;;
22737;SDS011;11536;50.860;4.286;2022-08-18T16:12:48;8.55;;;6.60;;
22737;SDS011;11536;50.860;4.286;2022-08-18T16:15:16;11.23;;;8.20;;
22737;SDS011;11536;50.860;4.286;2022-08-18T16:17:43;8.80;;;6.57;;
22737;SDS011;11536;50.860;4.286;2022-08-18T16:20:09;8.88;;;6.95;;
22737;SDS011;11536;50.860;4.286;2022-08-18T16:22:35;9.02;;;6.90;;
22737;SDS011;11536;50.860;4.286;2022-08-18T16:25:05;9.73;;;7.05;;
22737;SDS011;11536;50.860;4.286;2022-08-18T16:27:32;11.02;;;6.82;;
22737;SDS011;11536;50.860;4.286;2022-08-18T16:30:00;9.48;;;6.40;;
22737;SDS011;11536;50.860;4.286;2022-08-18T16:32:28;9.02;;;6.40;;
22737;SDS011;11536;50.860;4.286;2022-08-18T16:34:55;10.13;;;6.60;;
22737;SDS011;11536;50.860;4.286;2022-08-18T16:37:21;8.07;;;6.25;;
22737;SDS011;11536;50.860;4.286;2022-08-18T16:39:46;10.65;;;6.55;;
22737;SDS011;11536;50.860;4.286;2022-08-18T16:42:12;8.90;;;6.68;;
22737;SDS011;11536;50.860;4.286;2022-08-18T16:44:38;7.78;;;5.63;;
22737;SDS011;11536;50.860;4.286;2022-08-18T16:47:04;11.15;;;7.35;;
22737;SDS011;11536;50.860;4.286;2022-08-18T16:49:30;9.60;;;7.60;;
22737;SDS011;11536;50.860;4.286;2022-08-18T16:51:57;8.95;;;7.28;;
22737;SDS011;11536;50.860;4.286;2022-08-18T16:54:25;11.23;;;6.88;;
22737;SDS011;11536;50.860;4.286;2022-08-18T16:56:52;10.93;;;8.32;;
22737;SDS011;11536;50.860;4.286;2022-08-18T16:59:18;11.80;;;8.43;;
22737;SDS011;11536;50.860;4.286;2022-08-18T17:02:02;11.95;;;9.52;;
22737;SDS011;11536;50.860;4.286;2022-08-18T17:04:47;10.77;;;8.38;;